sensor_id;sensor_type;location;lat;lon;timestamp;temperature;humidity
24470;DHT22;12635;50.852;5.676;2023-04-20T00:01:52;5.20;99.90
24470;DHT22;12635;50.852;5.676;2023-04-20T00:04:19;5.40;99.90
24470;DHT22;12635;50.852;5.676;2023-04-20T00:06:46;5.30;99.90
24470;DHT22;12635;50.852;5.676;2023-04-20T00:09:13;5.50;99.90
24470;DHT22;12635;50.852;5.676;2023-04-20T00:11:41;5.50;99.90
24470;DHT22;12635;50.852;5.676;2023-04-20T00:14:07;5.40;99.90
24470;DHT22;12635;50.852;5.676;2023-04-20T00:16:36;5.30;99.90
24470;DHT22;12635;50.852;5.676;2023-04-20T00:19:02;5.30;99.90
24470;DHT22;12635;50.852;5.676;2023-04-20T00:21:29;5.30;99.90
24470;DHT22;12635;50.852;5.676;2023-04-20T00:23:56;5.40;99.90
24470;DHT22;12635;50.852;5.676;2023-04-20T00:26:23;5.60;99.90
24470;DHT22;12635;50.852;5.676;2023-04-20T00:28:50;5.60;99.90
24470;DHT22;12635;50.852;5.676;2023-04-20T00:31:17;5.60;99.90
24470;DHT22;12635;50.852;5.676;2023-04-20T00:33:45;5.60;99.90
24470;DHT22;12635;50.852;5.676;2023-04-20T00:36:12;5.60;99.90
24470;DHT22;12635;50.852;5.676;2023-04-20T00:38:39;5.60;99.90
24470;DHT22;12635;50.852;5.676;2023-04-20T00:41:06;5.50;99.90
24470;DHT22;12635;50.852;5.676;2023-04-20T00:43:33;5.60;99.90
24470;DHT22;12635;50.852;5.676;2023-04-20T00:45:59;5.50;99.90
24470;DHT22;12635;50.852;5.676;2023-04-20T00:48:28;5.50;99.90
24470;DHT22;12635;50.852;5.676;2023-04-20T00:50:56;5.40;99.90
24470;DHT22;12635;50.852;5.676;2023-04-20T00:53:23;5.30;99.90
24470;DHT22;12635;50.852;5.676;2023-04-20T00:55:50;5.30;99.90
24470;DHT22;12635;50.852;5.676;2023-04-20T00:58:17;5.20;99.90
24470;DHT22;12635;50.852;5.676;2023-04-20T01:00:43;5.20;99.90
24470;DHT22;12635;50.852;5.676;2023-04-20T01:03:10;5.00;99.90
24470;DHT22;12635;50.852;5.676;2023-04-20T01:05:37;5.00;99.90
24470;DHT22;12635;50.852;5.676;2023-04-20T01:08:05;5.00;99.90
24470;DHT22;12635;50.852;5.676;2023-04-20T01:10:32;5.20;99.90
24470;DHT22;12635;50.852;5.676;2023-04-20T01:12:59;5.20;99.90
24470;DHT22;12635;50.852;5.676;2023-04-20T01:15:26;5.20;99.90
24470;DHT22;12635;50.852;5.676;2023-04-20T01:17:52;5.00;99.90
24470;DHT22;12635;50.852;5.676;2023-04-20T01:20:19;5.00;99.90
24470;DHT22;12635;50.852;5.676;2023-04-20T01:22:49;4.90;99.90
24470;DHT22;12635;50.852;5.676;2023-04-20T01:25:18;4.90;99.90
24470;DHT22;12635;50.852;5.676;2023-04-20T01:27:44;5.00;99.90
24470;DHT22;12635;50.852;5.676;2023-04-20T01:30:12;5.10;99.90
24470;DHT22;12635;50.852;5.676;2023-04-20T01:32:39;5.00;99.90
24470;DHT22;12635;50.852;5.676;2023-04-20T01:35:06;5.00;99.90
24470;DHT22;12635;50.852;5.676;2023-04-20T01:37:34;5.20;99.90
24470;DHT22;12635;50.852;5.676;2023-04-20T01:40:02;5.10;99.90
24470;DHT22;12635;50.852;5.676;2023-04-20T01:42:30;5.10;99.90
24470;DHT22;12635;50.852;5.676;2023-04-20T01:44:57;5.10;99.90
24470;DHT22;12635;50.852;5.676;2023-04-20T01:47:24;5.20;99.90
24470;DHT22;12635;50.852;5.676;2023-04-20T01:49:51;5.30;99.90
24470;DHT22;12635;50.852;5.676;2023-04-20T01:52:18;5.30;99.90
24470;DHT22;12635;50.852;5.676;2023-04-20T01:54:44;5.30;99.90
24470;DHT22;12635;50.852;5.676;2023-04-20T01:57:13;5.30;99.90
24470;DHT22;12635;50.852;5.676;2023-04-20T01:59:39;5.20;99.90
24470;DHT22;12635;50.852;5.676;2023-04-20T02:02:06;5.20;99.90
24470;DHT22;12635;50.852;5.676;2023-04-20T02:04:33;5.20;99.90
24470;DHT22;12635;50.852;5.676;2023-04-20T02:07:00;5.40;99.90
24470;DHT22;12635;50.852;5.676;2023-04-20T02:09:27;5.40;99.90
24470;DHT22;12635;50.852;5.676;2023-04-20T02:11:54;5.30;99.90
24470;DHT22;12635;50.852;5.676;2023-04-20T02:14:22;5.30;99.90
24470;DHT22;12635;50.852;5.676;2023-04-20T02:16:49;5.30;99.90
24470;DHT22;12635;50.852;5.676;2023-04-20T02:19:17;5.40;99.90
24470;DHT22;12635;50.852;5.676;2023-04-20T02:21:44;5.60;99.90
24470;DHT22;12635;50.852;5.676;2023-04-20T02:24:11;5.60;99.90
24470;DHT22;12635;50.852;5.676;2023-04-20T02:26:37;5.60;99.90
24470;DHT22;12635;50.852;5.676;2023-04-20T02:29:04;5.50;99.90
24470;DHT22;12635;50.852;5.676;2023-04-20T02:31:32;5.40;99.90
24470;DHT22;12635;50.852;5.676;2023-04-20T02:33:59;5.50;99.90
24470;DHT22;12635;50.852;5.676;2023-04-20T02:36:26;5.40;99.90
24470;DHT22;12635;50.852;5.676;2023-04-20T02:38:53;5.30;99.90
24470;DHT22;12635;50.852;5.676;2023-04-20T02:41:20;5.30;99.90
24470;DHT22;12635;50.852;5.676;2023-04-20T02:43:47;5.00;99.90
24470;DHT22;12635;50.852;5.676;2023-04-20T02:46:14;4.90;99.90
24470;DHT22;12635;50.852;5.676;2023-04-20T02:48:42;4.80;99.90
24470;DHT22;12635;50.852;5.676;2023-04-20T02:51:09;4.90;99.90
24470;DHT22;12635;50.852;5.676;2023-04-20T02:53:36;4.80;99.90
24470;DHT22;12635;50.852;5.676;2023-04-20T02:56:03;5.10;99.90
24470;DHT22;12635;50.852;5.676;2023-04-20T02:58:29;5.10;99.90
24470;DHT22;12635;50.852;5.676;2023-04-20T03:00:57;5.20;99.90
24470;DHT22;12635;50.852;5.676;2023-04-20T03:03:24;5.40;99.90
24470;DHT22;12635;50.852;5.676;2023-04-20T03:05:53;5.50;99.90
24470;DHT22;12635;50.852;5.676;2023-04-20T03:08:20;5.40;99.90
24470;DHT22;12635;50.852;5.676;2023-04-20T03:10:46;5.40;99.90
24470;DHT22;12635;50.852;5.676;2023-04-20T03:13:13;5.40;99.90
24470;DHT22;12635;50.852;5.676;2023-04-20T03:15:41;5.40;99.90
24470;DHT22;12635;50.852;5.676;2023-04-20T03:18:08;5.40;99.90
24470;DHT22;12635;50.852;5.676;2023-04-20T03:20:35;5.50;99.90
24470;DHT22;12635;50.852;5.676;2023-04-20T03:23:03;5.60;99.90
24470;DHT22;12635;50.852;5.676;2023-04-20T03:25:30;5.60;99.90
24470;DHT22;12635;50.852;5.676;2023-04-20T03:27:57;5.50;99.90
24470;DHT22;12635;50.852;5.676;2023-04-20T03:30:24;5.60;99.90
24470;DHT22;12635;50.852;5.676;2023-04-20T03:32:51;5.60;99.90
24470;DHT22;12635;50.852;5.676;2023-04-20T03:35:18;5.50;99.90
24470;DHT22;12635;50.852;5.676;2023-04-20T03:37:45;5.60;99.90
24470;DHT22;12635;50.852;5.676;2023-04-20T03:40:13;5.60;99.90
24470;DHT22;12635;50.852;5.676;2023-04-20T03:42:40;5.60;99.90
24470;DHT22;12635;50.852;5.676;2023-04-20T03:45:07;5.60;99.90
24470;DHT22;12635;50.852;5.676;2023-04-20T03:47:34;5.60;99.90
24470;DHT22;12635;50.852;5.676;2023-04-20T03:50:01;5.60;99.90
24470;DHT22;12635;50.852;5.676;2023-04-20T03:52:28;5.70;99.90
24470;DHT22;12635;50.852;5.676;2023-04-20T03:54:55;5.60;99.90
24470;DHT22;12635;50.852;5.676;2023-04-20T03:57:23;5.60;99.90
24470;DHT22;12635;50.852;5.676;2023-04-20T03:59:50;5.60;99.90
24470;DHT22;12635;50.852;5.676;2023-04-20T04:02:17;5.60;99.90
24470;DHT22;12635;50.852;5.676;2023-04-20T04:04:44;5.60;99.90
24470;DHT22;12635;50.852;5.676;2023-04-20T04:07:11;5.60;99.90
24470;DHT22;12635;50.852;5.676;2023-04-20T04:09:37;5.70;99.90
24470;DHT22;12635;50.852;5.676;2023-04-20T04:12:04;5.60;99.90
24470;DHT22;12635;50.852;5.676;2023-04-20T04:14:33;5.60;99.90
24470;DHT22;12635;50.852;5.676;2023-04-20T04:17:00;5.70;99.90
24470;DHT22;12635;50.852;5.676;2023-04-20T04:19:27;5.70;99.90
24470;DHT22;12635;50.852;5.676;2023-04-20T04:21:54;5.80;99.90
24470;DHT22;12635;50.852;5.676;2023-04-20T04:24:20;5.70;99.90
24470;DHT22;12635;50.852;5.676;2023-04-20T04:26:47;5.80;99.90
24470;DHT22;12635;50.852;5.676;2023-04-20T04:29:14;5.70;99.90
24470;DHT22;12635;50.852;5.676;2023-04-20T04:31:42;5.80;99.90
24470;DHT22;12635;50.852;5.676;2023-04-20T04:34:09;5.80;99.90
24470;DHT22;12635;50.852;5.676;2023-04-20T04:36:36;5.80;99.90
24470;DHT22;12635;50.852;5.676;2023-04-20T04:39:03;5.70;99.90
24470;DHT22;12635;50.852;5.676;2023-04-20T04:41:30;5.70;99.90
24470;DHT22;12635;50.852;5.676;2023-04-20T04:43:57;5.70;99.90
24470;DHT22;12635;50.852;5.676;2023-04-20T04:46:25;5.60;99.90
24470;DHT22;12635;50.852;5.676;2023-04-20T04:48:54;5.60;99.90
24470;DHT22;12635;50.852;5.676;2023-04-20T04:51:21;5.60;99.90
24470;DHT22;12635;50.852;5.676;2023-04-20T04:53:48;5.70;99.90
24470;DHT22;12635;50.852;5.676;2023-04-20T04:56:15;5.70;99.90
24470;DHT22;12635;50.852;5.676;2023-04-20T04:58:42;5.60;99.90
24470;DHT22;12635;50.852;5.676;2023-04-20T05:01:09;5.50;99.90
24470;DHT22;12635;50.852;5.676;2023-04-20T05:03:36;5.40;99.90
24470;DHT22;12635;50.852;5.676;2023-04-20T05:06:05;5.20;99.90
24470;DHT22;12635;50.852;5.676;2023-04-20T05:08:32;5.00;99.90
24470;DHT22;12635;50.852;5.676;2023-04-20T05:10:59;4.80;99.90
24470;DHT22;12635;50.852;5.676;2023-04-20T05:13:25;4.70;99.90
24470;DHT22;12635;50.852;5.676;2023-04-20T05:15:52;4.70;99.90
24470;DHT22;12635;50.852;5.676;2023-04-20T05:18:19;4.70;99.90
24470;DHT22;12635;50.852;5.676;2023-04-20T05:20:46;4.70;99.90
24470;DHT22;12635;50.852;5.676;2023-04-20T05:23:14;4.80;99.90
24470;DHT22;12635;50.852;5.676;2023-04-20T05:25:41;4.80;99.90
24470;DHT22;12635;50.852;5.676;2023-04-20T05:28:08;4.90;99.90
24470;DHT22;12635;50.852;5.676;2023-04-20T05:30:35;5.00;99.90
24470;DHT22;12635;50.852;5.676;2023-04-20T05:33:02;5.20;99.90
24470;DHT22;12635;50.852;5.676;2023-04-20T05:35:29;5.30;99.90
24470;DHT22;12635;50.852;5.676;2023-04-20T05:37:55;5.40;99.90
24470;DHT22;12635;50.852;5.676;2023-04-20T05:40:26;5.50;99.90
24470;DHT22;12635;50.852;5.676;2023-04-20T05:42:53;5.50;99.90
24470;DHT22;12635;50.852;5.676;2023-04-20T05:45:20;5.40;99.90
24470;DHT22;12635;50.852;5.676;2023-04-20T05:47:53;5.30;99.90
24470;DHT22;12635;50.852;5.676;2023-04-20T05:50:20;5.30;99.90
24470;DHT22;12635;50.852;5.676;2023-04-20T05:52:47;5.30;99.90
24470;DHT22;12635;50.852;5.676;2023-04-20T05:55:14;5.30;99.90
24470;DHT22;12635;50.852;5.676;2023-04-20T05:57:42;5.30;99.90
24470;DHT22;12635;50.852;5.676;2023-04-20T06:00:09;5.30;99.90
24470;DHT22;12635;50.852;5.676;2023-04-20T06:02:36;5.30;99.90
24470;DHT22;12635;50.852;5.676;2023-04-20T06:05:03;5.30;99.90
24470;DHT22;12635;50.852;5.676;2023-04-20T06:07:30;5.30;99.90
24470;DHT22;12635;50.852;5.676;2023-04-20T06:09:57;5.30;99.90
24470;DHT22;12635;50.852;5.676;2023-04-20T06:12:26;5.30;99.90
24470;DHT22;12635;50.852;5.676;2023-04-20T06:14:55;5.40;99.90
24470;DHT22;12635;50.852;5.676;2023-04-20T06:17:22;5.40;99.90
24470;DHT22;12635;50.852;5.676;2023-04-20T06:19:50;5.50;99.90
24470;DHT22;12635;50.852;5.676;2023-04-20T06:22:16;5.50;99.90
24470;DHT22;12635;50.852;5.676;2023-04-20T06:24:43;5.50;99.90
24470;DHT22;12635;50.852;5.676;2023-04-20T06:27:11;5.50;99.90
24470;DHT22;12635;50.852;5.676;2023-04-20T06:29:38;5.60;99.90
24470;DHT22;12635;50.852;5.676;2023-04-20T06:32:06;5.50;99.90
24470;DHT22;12635;50.852;5.676;2023-04-20T06:34:33;5.50;99.90
24470;DHT22;12635;50.852;5.676;2023-04-20T06:37:00;5.50;99.90
24470;DHT22;12635;50.852;5.676;2023-04-20T06:39:26;5.50;99.90
24470;DHT22;12635;50.852;5.676;2023-04-20T06:41:53;5.60;99.90
24470;DHT22;12635;50.852;5.676;2023-04-20T06:44:21;5.60;99.90
24470;DHT22;12635;50.852;5.676;2023-04-20T06:46:47;5.60;99.90
24470;DHT22;12635;50.852;5.676;2023-04-20T06:49:16;5.60;99.90
24470;DHT22;12635;50.852;5.676;2023-04-20T06:51:42;5.70;99.90
24470;DHT22;12635;50.852;5.676;2023-04-20T06:54:10;5.70;99.90
24470;DHT22;12635;50.852;5.676;2023-04-20T06:56:36;5.70;99.90
24470;DHT22;12635;50.852;5.676;2023-04-20T06:59:03;5.70;99.90
24470;DHT22;12635;50.852;5.676;2023-04-20T07:01:30;5.60;99.90
24470;DHT22;12635;50.852;5.676;2023-04-20T07:03:57;5.60;99.90
24470;DHT22;12635;50.852;5.676;2023-04-20T07:06:25;5.60;99.90
24470;DHT22;12635;50.852;5.676;2023-04-20T07:08:53;5.50;99.90
24470;DHT22;12635;50.852;5.676;2023-04-20T07:11:20;5.60;99.90
24470;DHT22;12635;50.852;5.676;2023-04-20T07:13:46;5.60;99.90
24470;DHT22;12635;50.852;5.676;2023-04-20T07:16:14;5.60;99.90
24470;DHT22;12635;50.852;5.676;2023-04-20T07:18:41;5.70;99.90
24470;DHT22;12635;50.852;5.676;2023-04-20T07:21:08;5.70;99.90
24470;DHT22;12635;50.852;5.676;2023-04-20T07:23:36;5.70;99.90
24470;DHT22;12635;50.852;5.676;2023-04-20T07:26:03;5.70;99.90
24470;DHT22;12635;50.852;5.676;2023-04-20T07:28:30;5.70;99.90
24470;DHT22;12635;50.852;5.676;2023-04-20T07:30:57;5.70;99.90
24470;DHT22;12635;50.852;5.676;2023-04-20T07:33:24;5.80;99.90
24470;DHT22;12635;50.852;5.676;2023-04-20T07:35:52;5.80;99.90
24470;DHT22;12635;50.852;5.676;2023-04-20T07:38:19;5.90;99.90
24470;DHT22;12635;50.852;5.676;2023-04-20T07:40:47;6.00;99.90
24470;DHT22;12635;50.852;5.676;2023-04-20T07:43:14;6.00;99.90
24470;DHT22;12635;50.852;5.676;2023-04-20T07:45:41;6.10;99.90
24470;DHT22;12635;50.852;5.676;2023-04-20T07:48:08;6.20;99.90
24470;DHT22;12635;50.852;5.676;2023-04-20T07:50:36;6.20;99.90
24470;DHT22;12635;50.852;5.676;2023-04-20T07:53:03;6.30;99.90
24470;DHT22;12635;50.852;5.676;2023-04-20T07:55:30;6.40;99.90
24470;DHT22;12635;50.852;5.676;2023-04-20T07:57:58;6.40;99.90
24470;DHT22;12635;50.852;5.676;2023-04-20T08:00:26;6.40;99.90
24470;DHT22;12635;50.852;5.676;2023-04-20T08:02:53;6.50;99.90
24470;DHT22;12635;50.852;5.676;2023-04-20T08:05:19;6.60;99.90
24470;DHT22;12635;50.852;5.676;2023-04-20T08:07:46;6.70;99.90
24470;DHT22;12635;50.852;5.676;2023-04-20T08:10:13;6.90;99.90
24470;DHT22;12635;50.852;5.676;2023-04-20T08:12:40;6.90;99.90
24470;DHT22;12635;50.852;5.676;2023-04-20T08:15:09;6.80;99.90
24470;DHT22;12635;50.852;5.676;2023-04-20T08:17:36;6.90;99.90
24470;DHT22;12635;50.852;5.676;2023-04-20T08:20:04;6.80;99.90
24470;DHT22;12635;50.852;5.676;2023-04-20T08:22:31;6.70;99.90
24470;DHT22;12635;50.852;5.676;2023-04-20T08:24:58;6.80;99.90
24470;DHT22;12635;50.852;5.676;2023-04-20T08:27:25;6.80;99.90
24470;DHT22;12635;50.852;5.676;2023-04-20T08:29:54;7.00;99.90
24470;DHT22;12635;50.852;5.676;2023-04-20T08:32:22;7.30;99.90
24470;DHT22;12635;50.852;5.676;2023-04-20T08:34:51;7.50;99.90
24470;DHT22;12635;50.852;5.676;2023-04-20T08:37:18;7.50;99.90
24470;DHT22;12635;50.852;5.676;2023-04-20T08:39:45;7.60;99.90
24470;DHT22;12635;50.852;5.676;2023-04-20T08:42:12;7.40;99.90
24470;DHT22;12635;50.852;5.676;2023-04-20T08:44:41;7.50;99.90
24470;DHT22;12635;50.852;5.676;2023-04-20T08:47:08;7.60;99.90
24470;DHT22;12635;50.852;5.676;2023-04-20T08:49:36;7.50;99.90
24470;DHT22;12635;50.852;5.676;2023-04-20T08:52:04;7.50;99.90
24470;DHT22;12635;50.852;5.676;2023-04-20T08:54:30;7.50;99.90
24470;DHT22;12635;50.852;5.676;2023-04-20T08:56:57;7.80;99.90
24470;DHT22;12635;50.852;5.676;2023-04-20T08:59:26;7.90;99.90
24470;DHT22;12635;50.852;5.676;2023-04-20T09:01:53;8.00;99.90
24470;DHT22;12635;50.852;5.676;2023-04-20T09:04:20;8.10;99.90
24470;DHT22;12635;50.852;5.676;2023-04-20T09:06:49;8.20;99.90
24470;DHT22;12635;50.852;5.676;2023-04-20T09:09:16;7.90;99.90
24470;DHT22;12635;50.852;5.676;2023-04-20T09:11:44;8.00;99.90
24470;DHT22;12635;50.852;5.676;2023-04-20T09:14:11;8.10;99.90
24470;DHT22;12635;50.852;5.676;2023-04-20T09:16:47;8.30;99.90
24470;DHT22;12635;50.852;5.676;2023-04-20T09:19:14;8.80;99.90
24470;DHT22;12635;50.852;5.676;2023-04-20T09:21:47;9.50;99.90
24470;DHT22;12635;50.852;5.676;2023-04-20T09:24:15;10.10;99.90
24470;DHT22;12635;50.852;5.676;2023-04-20T09:26:42;10.30;99.90
24470;DHT22;12635;50.852;5.676;2023-04-20T09:29:14;10.00;99.90
24470;DHT22;12635;50.852;5.676;2023-04-20T09:31:42;9.60;99.90
24470;DHT22;12635;50.852;5.676;2023-04-20T09:34:09;9.30;99.90
24470;DHT22;12635;50.852;5.676;2023-04-20T09:36:36;9.20;99.90
24470;DHT22;12635;50.852;5.676;2023-04-20T09:39:05;9.10;99.90
24470;DHT22;12635;50.852;5.676;2023-04-20T09:41:34;9.50;99.90
24470;DHT22;12635;50.852;5.676;2023-04-20T09:44:00;9.90;99.90
24470;DHT22;12635;50.852;5.676;2023-04-20T09:46:28;10.10;99.90
24470;DHT22;12635;50.852;5.676;2023-04-20T09:48:56;9.90;99.90
24470;DHT22;12635;50.852;5.676;2023-04-20T09:51:24;9.80;99.90
24470;DHT22;12635;50.852;5.676;2023-04-20T09:53:52;9.20;99.90
24470;DHT22;12635;50.852;5.676;2023-04-20T09:56:20;8.90;99.90
24470;DHT22;12635;50.852;5.676;2023-04-20T09:58:48;8.70;99.90
24470;DHT22;12635;50.852;5.676;2023-04-20T10:01:16;8.50;99.90
24470;DHT22;12635;50.852;5.676;2023-04-20T10:03:43;8.40;99.90
24470;DHT22;12635;50.852;5.676;2023-04-20T10:06:17;8.40;99.90
24470;DHT22;12635;50.852;5.676;2023-04-20T10:08:44;8.10;99.90
24470;DHT22;12635;50.852;5.676;2023-04-20T10:11:22;8.20;99.90
24470;DHT22;12635;50.852;5.676;2023-04-20T10:13:51;8.30;99.90
24470;DHT22;12635;50.852;5.676;2023-04-20T10:16:17;8.40;99.90
24470;DHT22;12635;50.852;5.676;2023-04-20T10:18:54;8.20;99.90
24470;DHT22;12635;50.852;5.676;2023-04-20T10:21:21;8.40;99.90
24470;DHT22;12635;50.852;5.676;2023-04-20T10:23:49;8.40;99.90
24470;DHT22;12635;50.852;5.676;2023-04-20T10:26:16;8.10;99.90
24470;DHT22;12635;50.852;5.676;2023-04-20T10:28:43;7.70;99.90
24470;DHT22;12635;50.852;5.676;2023-04-20T10:31:12;7.50;99.90
24470;DHT22;12635;50.852;5.676;2023-04-20T10:33:49;7.40;99.90
24470;DHT22;12635;50.852;5.676;2023-04-20T10:36:26;7.30;99.90
24470;DHT22;12635;50.852;5.676;2023-04-20T10:38:53;7.10;99.90
24470;DHT22;12635;50.852;5.676;2023-04-20T10:41:20;6.90;99.90
24470;DHT22;12635;50.852;5.676;2023-04-20T10:43:47;6.80;99.90
24470;DHT22;12635;50.852;5.676;2023-04-20T10:46:16;6.70;99.90
24470;DHT22;12635;50.852;5.676;2023-04-20T10:48:52;6.70;99.90
24470;DHT22;12635;50.852;5.676;2023-04-20T10:51:19;6.70;99.90
24470;DHT22;12635;50.852;5.676;2023-04-20T10:53:56;6.90;99.90
24470;DHT22;12635;50.852;5.676;2023-04-20T10:56:23;7.10;99.90
24470;DHT22;12635;50.852;5.676;2023-04-20T10:58:50;7.30;99.90
24470;DHT22;12635;50.852;5.676;2023-04-20T11:01:18;7.20;99.90
24470;DHT22;12635;50.852;5.676;2023-04-20T11:03:48;7.20;99.90
24470;DHT22;12635;50.852;5.676;2023-04-20T11:06:14;7.20;99.90
24470;DHT22;12635;50.852;5.676;2023-04-20T11:08:41;7.30;99.90
24470;DHT22;12635;50.852;5.676;2023-04-20T11:11:18;7.60;99.90
24470;DHT22;12635;50.852;5.676;2023-04-20T11:13:45;7.90;99.90
24470;DHT22;12635;50.852;5.676;2023-04-20T11:16:12;8.20;99.90
24470;DHT22;12635;50.852;5.676;2023-04-20T11:18:48;8.40;99.90
24470;DHT22;12635;50.852;5.676;2023-04-20T11:21:17;8.50;99.90
24470;DHT22;12635;50.852;5.676;2023-04-20T11:23:44;8.60;99.90
24470;DHT22;12635;50.852;5.676;2023-04-20T11:26:10;8.90;99.90
24470;DHT22;12635;50.852;5.676;2023-04-20T11:28:37;8.90;99.90
24470;DHT22;12635;50.852;5.676;2023-04-20T11:31:04;8.60;99.90
24470;DHT22;12635;50.852;5.676;2023-04-20T11:33:31;8.10;99.90
24470;DHT22;12635;50.852;5.676;2023-04-20T11:36:00;8.00;99.90
24470;DHT22;12635;50.852;5.676;2023-04-20T11:38:28;7.90;99.90
24470;DHT22;12635;50.852;5.676;2023-04-20T11:40:55;7.60;99.90
24470;DHT22;12635;50.852;5.676;2023-04-20T11:43:24;7.50;99.90
24470;DHT22;12635;50.852;5.676;2023-04-20T11:45:51;7.20;99.90
24470;DHT22;12635;50.852;5.676;2023-04-20T11:48:19;6.60;99.90
24470;DHT22;12635;50.852;5.676;2023-04-20T11:50:45;6.30;99.90
24470;DHT22;12635;50.852;5.676;2023-04-20T11:53:14;6.10;99.90
24470;DHT22;12635;50.852;5.676;2023-04-20T11:55:41;6.10;99.90
24470;DHT22;12635;50.852;5.676;2023-04-20T11:58:08;6.10;99.90
24470;DHT22;12635;50.852;5.676;2023-04-20T12:00:35;6.10;99.90
24470;DHT22;12635;50.852;5.676;2023-04-20T12:03:02;6.00;99.90
24470;DHT22;12635;50.852;5.676;2023-04-20T12:05:29;6.20;99.90
24470;DHT22;12635;50.852;5.676;2023-04-20T12:07:56;6.70;99.90
24470;DHT22;12635;50.852;5.676;2023-04-20T12:10:24;7.70;99.90
24470;DHT22;12635;50.852;5.676;2023-04-20T12:12:51;8.60;99.90
24470;DHT22;12635;50.852;5.676;2023-04-20T12:15:18;8.70;99.90
24470;DHT22;12635;50.852;5.676;2023-04-20T12:17:45;8.50;99.90
24470;DHT22;12635;50.852;5.676;2023-04-20T12:20:12;8.20;99.90
24470;DHT22;12635;50.852;5.676;2023-04-20T12:22:39;8.00;99.90
24470;DHT22;12635;50.852;5.676;2023-04-20T12:25:06;8.00;99.90
24470;DHT22;12635;50.852;5.676;2023-04-20T12:27:35;7.90;99.90
24470;DHT22;12635;50.852;5.676;2023-04-20T12:30:02;8.00;99.90
24470;DHT22;12635;50.852;5.676;2023-04-20T12:32:29;9.00;99.90
24470;DHT22;12635;50.852;5.676;2023-04-20T12:34:56;10.40;99.90
24470;DHT22;12635;50.852;5.676;2023-04-20T12:37:23;11.10;99.90
24470;DHT22;12635;50.852;5.676;2023-04-20T12:39:50;12.00;99.90
24470;DHT22;12635;50.852;5.676;2023-04-20T12:42:17;12.50;99.90
24470;DHT22;12635;50.852;5.676;2023-04-20T12:44:45;12.30;99.90
24470;DHT22;12635;50.852;5.676;2023-04-20T12:47:12;13.00;99.90
24470;DHT22;12635;50.852;5.676;2023-04-20T12:49:39;13.00;99.90
24470;DHT22;12635;50.852;5.676;2023-04-20T12:52:06;13.10;99.90
24470;DHT22;12635;50.852;5.676;2023-04-20T12:54:33;13.60;99.90
24470;DHT22;12635;50.852;5.676;2023-04-20T12:57:00;13.80;99.90
24470;DHT22;12635;50.852;5.676;2023-04-20T12:59:27;13.00;99.90
24470;DHT22;12635;50.852;5.676;2023-04-20T13:01:56;11.10;99.90
24470;DHT22;12635;50.852;5.676;2023-04-20T13:04:22;10.80;99.90
24470;DHT22;12635;50.852;5.676;2023-04-20T13:06:49;10.70;99.90
24470;DHT22;12635;50.852;5.676;2023-04-20T13:09:16;10.70;99.90
24470;DHT22;12635;50.852;5.676;2023-04-20T13:11:43;10.30;99.90
24470;DHT22;12635;50.852;5.676;2023-04-20T13:14:11;9.70;99.90
24470;DHT22;12635;50.852;5.676;2023-04-20T13:16:37;9.20;99.90
24470;DHT22;12635;50.852;5.676;2023-04-20T13:19:06;9.20;99.90
24470;DHT22;12635;50.852;5.676;2023-04-20T13:21:32;9.00;99.90
24470;DHT22;12635;50.852;5.676;2023-04-20T13:23:59;8.90;99.90
24470;DHT22;12635;50.852;5.676;2023-04-20T13:26:26;8.70;99.90
24470;DHT22;12635;50.852;5.676;2023-04-20T13:28:53;8.40;99.90
24470;DHT22;12635;50.852;5.676;2023-04-20T13:31:21;7.70;99.90
24470;DHT22;12635;50.852;5.676;2023-04-20T13:33:48;7.60;99.90
24470;DHT22;12635;50.852;5.676;2023-04-20T13:36:20;8.00;99.90
24470;DHT22;12635;50.852;5.676;2023-04-20T13:38:47;8.40;99.90
24470;DHT22;12635;50.852;5.676;2023-04-20T13:41:16;9.00;99.90
24470;DHT22;12635;50.852;5.676;2023-04-20T13:43:43;10.00;99.90
24470;DHT22;12635;50.852;5.676;2023-04-20T13:46:10;10.80;99.90
24470;DHT22;12635;50.852;5.676;2023-04-20T13:48:37;11.40;99.90
24470;DHT22;12635;50.852;5.676;2023-04-20T13:51:04;11.10;99.90
24470;DHT22;12635;50.852;5.676;2023-04-20T13:53:32;11.70;99.90
24470;DHT22;12635;50.852;5.676;2023-04-20T13:55:59;12.70;99.90
24470;DHT22;12635;50.852;5.676;2023-04-20T13:58:26;13.20;99.90
24470;DHT22;12635;50.852;5.676;2023-04-20T14:00:53;13.30;99.90
24470;DHT22;12635;50.852;5.676;2023-04-20T14:03:20;14.40;99.90
24470;DHT22;12635;50.852;5.676;2023-04-20T14:05:47;14.70;99.90
24470;DHT22;12635;50.852;5.676;2023-04-20T14:08:14;14.60;99.90
24470;DHT22;12635;50.852;5.676;2023-04-20T14:10:42;13.70;99.90
24470;DHT22;12635;50.852;5.676;2023-04-20T14:13:09;13.70;99.90
24470;DHT22;12635;50.852;5.676;2023-04-20T14:15:36;14.80;99.90
24470;DHT22;12635;50.852;5.676;2023-04-20T14:18:03;15.60;99.90
24470;DHT22;12635;50.852;5.676;2023-04-20T14:20:30;15.00;99.90
24470;DHT22;12635;50.852;5.676;2023-04-20T14:22:57;14.90;99.90
24470;DHT22;12635;50.852;5.676;2023-04-20T14:25:23;14.40;99.90
24470;DHT22;12635;50.852;5.676;2023-04-20T14:27:52;15.00;99.90
24470;DHT22;12635;50.852;5.676;2023-04-20T14:30:19;15.40;99.90
24470;DHT22;12635;50.852;5.676;2023-04-20T14:32:55;15.40;99.90
24470;DHT22;12635;50.852;5.676;2023-04-20T14:35:22;15.30;99.90
24470;DHT22;12635;50.852;5.676;2023-04-20T14:37:49;15.30;99.90
24470;DHT22;12635;50.852;5.676;2023-04-20T14:40:15;14.60;99.90
24470;DHT22;12635;50.852;5.676;2023-04-20T14:42:43;13.80;99.90
24470;DHT22;12635;50.852;5.676;2023-04-20T14:45:12;12.50;99.90
24470;DHT22;12635;50.852;5.676;2023-04-20T14:47:39;13.10;99.90
24470;DHT22;12635;50.852;5.676;2023-04-20T14:50:06;13.80;99.90
24470;DHT22;12635;50.852;5.676;2023-04-20T14:52:34;14.30;99.90
24470;DHT22;12635;50.852;5.676;2023-04-20T14:55:00;15.30;99.90
24470;DHT22;12635;50.852;5.676;2023-04-20T14:57:27;15.90;99.90
24470;DHT22;12635;50.852;5.676;2023-04-20T14:59:55;16.30;99.90
24470;DHT22;12635;50.852;5.676;2023-04-20T15:02:24;15.90;99.90
24470;DHT22;12635;50.852;5.676;2023-04-20T15:04:51;14.60;99.90
24470;DHT22;12635;50.852;5.676;2023-04-20T15:07:17;12.50;99.90
24470;DHT22;12635;50.852;5.676;2023-04-20T15:09:44;11.80;99.90
24470;DHT22;12635;50.852;5.676;2023-04-20T15:12:11;11.40;99.90
24470;DHT22;12635;50.852;5.676;2023-04-20T15:14:38;11.00;99.90
24470;DHT22;12635;50.852;5.676;2023-04-20T15:17:05;12.20;99.90
24470;DHT22;12635;50.852;5.676;2023-04-20T15:19:33;14.10;99.90
24470;DHT22;12635;50.852;5.676;2023-04-20T15:22:00;14.80;99.90
24470;DHT22;12635;50.852;5.676;2023-04-20T15:24:27;15.40;99.90
24470;DHT22;12635;50.852;5.676;2023-04-20T15:26:54;15.70;99.90
24470;DHT22;12635;50.852;5.676;2023-04-20T15:29:20;16.20;99.90
24470;DHT22;12635;50.852;5.676;2023-04-20T15:31:47;16.60;99.90
24470;DHT22;12635;50.852;5.676;2023-04-20T15:34:14;15.80;99.90
24470;DHT22;12635;50.852;5.676;2023-04-20T15:36:42;14.60;99.90
24470;DHT22;12635;50.852;5.676;2023-04-20T15:39:09;13.40;99.90
24470;DHT22;12635;50.852;5.676;2023-04-20T15:41:37;13.00;99.90
24470;DHT22;12635;50.852;5.676;2023-04-20T15:44:04;12.80;99.90